sensor_id;sensor_type;location;lat;lon;timestamp;P1;durP1;ratioP1;P2;durP2;ratioP2
357;SDS011;167;47.558;7.602;2023-03-01T00:00:37;13.47;;;12.17;;
357;SDS011;167;47.558;7.602;2023-03-01T00:03:03;15.00;;;13.40;;
357;SDS011;167;47.558;7.602;2023-03-01T00:05:29;14.33;;;12.83;;
357;SDS011;167;47.558;7.602;2023-03-01T00:07:55;14.17;;;12.77;;
357;SDS011;167;47.558;7.602;2023-03-01T00:10:21;15.20;;;13.60;;
357;SDS011;167;47.558;7.602;2023-03-01T00:12:47;13.60;;;12.30;;
357;SDS011;167;47.558;7.602;2023-03-01T00:15:13;14.67;;;13.27;;
357;SDS011;167;47.558;7.602;2023-03-01T00:17:39;14.80;;;13.30;;
357;SDS011;167;47.558;7.602;2023-03-01T00:20:05;15.50;;;13.90;;
357;SDS011;167;47.558;7.602;2023-03-01T00:22:35;14.70;;;12.90;;
357;SDS011;167;47.558;7.602;2023-03-01T00:25:01;16.30;;;13.47;;
357;SDS011;167;47.558;7.602;2023-03-01T00:27:27;15.00;;;13.53;;
357;SDS011;167;47.558;7.602;2023-03-01T00:29:53;14.53;;;13.13;;
357;SDS011;167;47.558;7.602;2023-03-01T00:32:19;14.17;;;12.87;;
357;SDS011;167;47.558;7.602;2023-03-01T00:34:45;13.43;;;12.00;;
357;SDS011;167;47.558;7.602;2023-03-01T00:37:19;13.03;;;11.83;;
357;SDS011;167;47.558;7.602;2023-03-01T00:39:46;15.10;;;13.80;;
357;SDS011;167;47.558;7.602;2023-03-01T00:42:11;14.50;;;13.10;;
357;SDS011;167;47.558;7.602;2023-03-01T00:44:37;14.50;;;13.10;;
357;SDS011;167;47.558;7.602;2023-03-01T00:47:03;14.83;;;13.30;;
357;SDS011;167;47.558;7.602;2023-03-01T00:49:29;13.83;;;12.53;;
357;SDS011;167;47.558;7.602;2023-03-01T00:51:55;14.15;;;12.70;;
357;SDS011;167;47.558;7.602;2023-03-01T00:54:21;14.00;;;12.60;;
357;SDS011;167;47.558;7.602;2023-03-01T00:56:47;14.20;;;12.77;;
357;SDS011;167;47.558;7.602;2023-03-01T00:59:13;14.07;;;12.57;;
357;SDS011;167;47.558;7.602;2023-03-01T01:01:39;13.60;;;12.20;;
357;SDS011;167;47.558;7.602;2023-03-01T01:04:07;12.73;;;11.40;;
357;SDS011;167;47.558;7.602;2023-03-01T01:06:34;14.43;;;12.57;;
357;SDS011;167;47.558;7.602;2023-03-01T01:09:01;15.30;;;12.33;;
357;SDS011;167;47.558;7.602;2023-03-01T01:11:28;13.23;;;12.07;;
357;SDS011;167;47.558;7.602;2023-03-01T01:13:54;13.60;;;12.23;;
357;SDS011;167;47.558;7.602;2023-03-01T01:16:22;15.00;;;13.53;;
357;SDS011;167;47.558;7.602;2023-03-01T01:18:48;13.43;;;11.90;;
357;SDS011;167;47.558;7.602;2023-03-01T01:21:15;15.10;;;13.10;;
357;SDS011;167;47.558;7.602;2023-03-01T01:23:41;12.50;;;11.30;;
357;SDS011;167;47.558;7.602;2023-03-01T01:26:08;14.33;;;12.83;;
357;SDS011;167;47.558;7.602;2023-03-01T01:28:34;13.20;;;11.53;;
357;SDS011;167;47.558;7.602;2023-03-01T01:31:00;11.63;;;10.63;;
357;SDS011;167;47.558;7.602;2023-03-01T01:33:26;13.00;;;11.60;;
357;SDS011;167;47.558;7.602;2023-03-01T01:35:52;12.83;;;11.63;;
357;SDS011;167;47.558;7.602;2023-03-01T01:38:18;12.07;;;10.50;;
357;SDS011;167;47.558;7.602;2023-03-01T01:40:45;12.17;;;11.07;;
357;SDS011;167;47.558;7.602;2023-03-01T01:43:15;13.80;;;12.60;;
357;SDS011;167;47.558;7.602;2023-03-01T01:45:42;12.40;;;11.25;;
357;SDS011;167;47.558;7.602;2023-03-01T01:48:10;14.63;;;12.53;;
357;SDS011;167;47.558;7.602;2023-03-01T01:50:39;12.83;;;11.63;;
357;SDS011;167;47.558;7.602;2023-03-01T01:53:07;12.97;;;10.80;;
357;SDS011;167;47.558;7.602;2023-03-01T01:55:34;11.30;;;10.13;;
357;SDS011;167;47.558;7.602;2023-03-01T01:58:02;11.23;;;10.17;;
357;SDS011;167;47.558;7.602;2023-03-01T02:00:30;11.70;;;10.60;;
357;SDS011;167;47.558;7.602;2023-03-01T02:02:57;12.43;;;11.30;;
357;SDS011;167;47.558;7.602;2023-03-01T02:08:08;11.33;;;10.43;;
357;SDS011;167;47.558;7.602;2023-03-01T02:10:35;11.83;;;10.70;;
357;SDS011;167;47.558;7.602;2023-03-01T02:13:03;13.00;;;11.67;;
357;SDS011;167;47.558;7.602;2023-03-01T02:15:35;11.43;;;10.30;;
357;SDS011;167;47.558;7.602;2023-03-01T02:18:02;11.60;;;10.47;;
357;SDS011;167;47.558;7.602;2023-03-01T02:20:33;11.67;;;10.57;;
357;SDS011;167;47.558;7.602;2023-03-01T02:23:01;14.60;;;10.93;;
357;SDS011;167;47.558;7.602;2023-03-01T02:30:43;11.70;;;10.73;;
357;SDS011;167;47.558;7.602;2023-03-01T02:33:29;12.83;;;11.53;;
357;SDS011;167;47.558;7.602;2023-03-01T02:36:00;11.97;;;10.90;;
357;SDS011;167;47.558;7.602;2023-03-01T02:38:27;11.90;;;10.80;;
357;SDS011;167;47.558;7.602;2023-03-01T02:40:53;11.98;;;10.77;;
357;SDS011;167;47.558;7.602;2023-03-01T02:43:20;11.30;;;10.10;;
357;SDS011;167;47.558;7.602;2023-03-01T02:45:52;12.40;;;11.30;;
357;SDS011;167;47.558;7.602;2023-03-01T02:48:18;10.33;;;9.43;;
357;SDS011;167;47.558;7.602;2023-03-01T02:53:11;11.90;;;10.70;;
357;SDS011;167;47.558;7.602;2023-03-01T02:55:38;13.07;;;11.77;;
357;SDS011;167;47.558;7.602;2023-03-01T02:58:04;13.05;;;11.77;;
357;SDS011;167;47.558;7.602;2023-03-01T03:00:35;11.97;;;10.77;;
357;SDS011;167;47.558;7.602;2023-03-01T03:03:04;11.53;;;10.43;;
357;SDS011;167;47.558;7.602;2023-03-01T03:05:31;11.83;;;10.53;;
357;SDS011;167;47.558;7.602;2023-03-01T03:07:57;11.90;;;10.70;;
357;SDS011;167;47.558;7.602;2023-03-01T03:10:25;13.33;;;10.30;;
357;SDS011;167;47.558;7.602;2023-03-01T03:12:52;13.17;;;10.50;;
357;SDS011;167;47.558;7.602;2023-03-01T03:15:19;12.93;;;11.50;;
357;SDS011;167;47.558;7.602;2023-03-01T03:17:46;13.07;;;11.00;;
357;SDS011;167;47.558;7.602;2023-03-01T03:20:13;11.63;;;10.57;;
357;SDS011;167;47.558;7.602;2023-03-01T03:22:43;10.80;;;9.80;;
357;SDS011;167;47.558;7.602;2023-03-01T03:25:10;11.53;;;10.43;;
357;SDS011;167;47.558;7.602;2023-03-01T03:27:37;12.47;;;10.80;;
357;SDS011;167;47.558;7.602;2023-03-01T03:30:03;12.73;;;11.50;;
357;SDS011;167;47.558;7.602;2023-03-01T03:32:33;11.80;;;10.10;;
357;SDS011;167;47.558;7.602;2023-03-01T03:35:00;11.77;;;10.57;;
357;SDS011;167;47.558;7.602;2023-03-01T03:37:26;13.17;;;11.17;;
357;SDS011;167;47.558;7.602;2023-03-01T03:40:11;12.80;;;11.50;;
357;SDS011;167;47.558;7.602;2023-03-01T03:42:40;11.30;;;10.17;;
357;SDS011;167;47.558;7.602;2023-03-01T03:45:06;12.35;;;11.05;;
357;SDS011;167;47.558;7.602;2023-03-01T03:47:32;13.40;;;12.00;;
357;SDS011;167;47.558;7.602;2023-03-01T03:49:58;11.40;;;9.67;;
357;SDS011;167;47.558;7.602;2023-03-01T03:52:24;12.70;;;10.77;;
357;SDS011;167;47.558;7.602;2023-03-01T03:54:50;10.80;;;9.70;;
357;SDS011;167;47.558;7.602;2023-03-01T03:57:16;12.20;;;10.93;;
357;SDS011;167;47.558;7.602;2023-03-01T03:59:42;13.83;;;10.87;;
357;SDS011;167;47.558;7.602;2023-03-01T04:02:08;10.35;;;9.35;;
357;SDS011;167;47.558;7.602;2023-03-01T04:04:34;12.60;;;9.47;;
357;SDS011;167;47.558;7.602;2023-03-01T04:07:00;11.00;;;9.90;;
357;SDS011;167;47.558;7.602;2023-03-01T04:09:26;12.70;;;10.70;;
357;SDS011;167;47.558;7.602;2023-03-01T04:11:51;12.40;;;11.20;;
357;SDS011;167;47.558;7.602;2023-03-01T04:14:17;12.43;;;10.20;;
357;SDS011;167;47.558;7.602;2023-03-01T04:16:43;12.73;;;10.60;;
357;SDS011;167;47.558;7.602;2023-03-01T04:19:09;12.30;;;9.83;;
357;SDS011;167;47.558;7.602;2023-03-01T04:21:35;11.10;;;10.00;;
357;SDS011;167;47.558;7.602;2023-03-01T04:24:01;12.20;;;10.53;;
357;SDS011;167;47.558;7.602;2023-03-01T04:26:28;11.97;;;10.77;;
357;SDS011;167;47.558;7.602;2023-03-01T04:28:54;11.30;;;10.10;;
357;SDS011;167;47.558;7.602;2023-03-01T04:31:21;12.07;;;10.87;;
357;SDS011;167;47.558;7.602;2023-03-01T04:33:48;11.70;;;10.60;;
357;SDS011;167;47.558;7.602;2023-03-01T04:36:16;13.32;;;10.90;;
357;SDS011;167;47.558;7.602;2023-03-01T04:38:42;11.30;;;10.20;;
357;SDS011;167;47.558;7.602;2023-03-01T04:41:12;11.50;;;9.23;;
357;SDS011;167;47.558;7.602;2023-03-01T04:43:38;13.80;;;10.13;;
357;SDS011;167;47.558;7.602;2023-03-01T04:46:05;11.10;;;9.37;;
357;SDS011;167;47.558;7.602;2023-03-01T04:48:33;12.93;;;11.33;;
357;SDS011;167;47.558;7.602;2023-03-01T04:50:59;11.20;;;10.20;;
357;SDS011;167;47.558;7.602;2023-03-01T04:53:26;13.53;;;11.47;;
357;SDS011;167;47.558;7.602;2023-03-01T04:55:53;11.40;;;10.27;;
357;SDS011;167;47.558;7.602;2023-03-01T04:58:20;11.73;;;10.60;;
357;SDS011;167;47.558;7.602;2023-03-01T05:00:46;11.20;;;9.80;;
357;SDS011;167;47.558;7.602;2023-03-01T05:03:12;11.47;;;10.37;;
357;SDS011;167;47.558;7.602;2023-03-01T05:05:43;11.80;;;10.70;;
357;SDS011;167;47.558;7.602;2023-03-01T05:08:09;10.30;;;9.30;;
357;SDS011;167;47.558;7.602;2023-03-01T05:10:48;11.60;;;10.45;;
357;SDS011;167;47.558;7.602;2023-03-01T05:13:14;10.97;;;9.87;;
357;SDS011;167;47.558;7.602;2023-03-01T05:15:45;12.00;;;9.33;;
357;SDS011;167;47.558;7.602;2023-03-01T05:18:12;10.67;;;8.87;;
357;SDS011;167;47.558;7.602;2023-03-01T05:20:38;15.37;;;9.87;;
357;SDS011;167;47.558;7.602;2023-03-01T05:23:04;9.97;;;8.97;;
357;SDS011;167;47.558;7.602;2023-03-01T05:25:30;9.60;;;8.70;;
357;SDS011;167;47.558;7.602;2023-03-01T05:27:58;9.40;;;8.27;;
357;SDS011;167;47.558;7.602;2023-03-01T05:30:24;11.70;;;10.50;;
357;SDS011;167;47.558;7.602;2023-03-01T05:32:50;11.30;;;8.53;;
357;SDS011;167;47.558;7.602;2023-03-01T05:35:20;10.70;;;9.70;;
357;SDS011;167;47.558;7.602;2023-03-01T05:37:47;11.03;;;10.03;;
357;SDS011;167;47.558;7.602;2023-03-01T05:40:14;9.87;;;8.83;;
357;SDS011;167;47.558;7.602;2023-03-01T05:42:42;10.93;;;9.30;;
357;SDS011;167;47.558;7.602;2023-03-01T05:45:08;12.23;;;9.23;;
357;SDS011;167;47.558;7.602;2023-03-01T05:47:34;10.83;;;9.73;;
357;SDS011;167;47.558;7.602;2023-03-01T05:50:00;9.67;;;8.57;;
357;SDS011;167;47.558;7.602;2023-03-01T05:52:26;11.00;;;9.97;;
357;SDS011;167;47.558;7.602;2023-03-01T05:54:52;11.67;;;9.90;;
357;SDS011;167;47.558;7.602;2023-03-01T05:57:18;11.98;;;10.70;;
357;SDS011;167;47.558;7.602;2023-03-01T05:59:45;11.17;;;10.07;;
357;SDS011;167;47.558;7.602;2023-03-01T06:02:11;13.47;;;9.33;;
357;SDS011;167;47.558;7.602;2023-03-01T06:04:37;10.77;;;9.40;;
357;SDS011;167;47.558;7.602;2023-03-01T06:07:03;10.10;;;9.10;;
357;SDS011;167;47.558;7.602;2023-03-01T06:09:29;10.13;;;9.13;;
357;SDS011;167;47.558;7.602;2023-03-01T06:11:55;11.60;;;10.43;;
357;SDS011;167;47.558;7.602;2023-03-01T06:14:21;9.80;;;8.53;;
357;SDS011;167;47.558;7.602;2023-03-01T06:16:47;10.73;;;9.63;;
357;SDS011;167;47.558;7.602;2023-03-01T06:19:12;10.30;;;9.27;;
357;SDS011;167;47.558;7.602;2023-03-01T06:21:38;11.30;;;9.33;;
357;SDS011;167;47.558;7.602;2023-03-01T06:24:04;10.20;;;9.20;;
357;SDS011;167;47.558;7.602;2023-03-01T06:26:32;12.47;;;10.57;;
357;SDS011;167;47.558;7.602;2023-03-01T06:28:58;10.53;;;9.53;;
357;SDS011;167;47.558;7.602;2023-03-01T06:31:24;10.10;;;9.20;;
357;SDS011;167;47.558;7.602;2023-03-01T06:33:50;11.63;;;10.47;;
357;SDS011;167;47.558;7.602;2023-03-01T06:36:15;14.17;;;10.07;;
357;SDS011;167;47.558;7.602;2023-03-01T06:38:43;10.80;;;9.57;;
357;SDS011;167;47.558;7.602;2023-03-01T06:41:09;10.40;;;8.90;;
357;SDS011;167;47.558;7.602;2023-03-01T06:43:35;11.83;;;10.67;;
357;SDS011;167;47.558;7.602;2023-03-01T06:46:03;11.23;;;9.60;;
357;SDS011;167;47.558;7.602;2023-03-01T06:48:29;10.90;;;9.60;;
357;SDS011;167;47.558;7.602;2023-03-01T06:50:57;12.02;;;10.07;;
357;SDS011;167;47.558;7.602;2023-03-01T06:53:24;11.02;;;8.77;;
357;SDS011;167;47.558;7.602;2023-03-01T06:55:53;9.90;;;8.93;;
357;SDS011;167;47.558;7.602;2023-03-01T06:58:19;10.73;;;9.73;;
357;SDS011;167;47.558;7.602;2023-03-01T07:00:45;10.25;;;9.30;;
357;SDS011;167;47.558;7.602;2023-03-01T07:03:11;14.20;;;10.20;;
357;SDS011;167;47.558;7.602;2023-03-01T07:05:37;9.43;;;8.53;;
357;SDS011;167;47.558;7.602;2023-03-01T07:08:03;8.90;;;8.10;;
357;SDS011;167;47.558;7.602;2023-03-01T07:10:29;11.63;;;10.43;;
357;SDS011;167;47.558;7.602;2023-03-01T07:12:56;10.20;;;9.10;;
357;SDS011;167;47.558;7.602;2023-03-01T07:15:22;10.60;;;9.70;;
357;SDS011;167;47.558;7.602;2023-03-01T07:17:48;12.07;;;10.80;;
357;SDS011;167;47.558;7.602;2023-03-01T07:20:15;9.97;;;9.13;;
357;SDS011;167;47.558;7.602;2023-03-01T07:22:42;10.67;;;9.57;;
357;SDS011;167;47.558;7.602;2023-03-01T07:25:09;10.43;;;9.27;;
357;SDS011;167;47.558;7.602;2023-03-01T07:27:35;9.07;;;8.17;;
357;SDS011;167;47.558;7.602;2023-03-01T07:30:01;9.70;;;8.70;;
357;SDS011;167;47.558;7.602;2023-03-01T07:32:27;8.93;;;8.13;;
357;SDS011;167;47.558;7.602;2023-03-01T07:34:53;9.30;;;8.40;;
357;SDS011;167;47.558;7.602;2023-03-01T07:37:19;9.43;;;8.43;;
357;SDS011;167;47.558;7.602;2023-03-01T07:39:45;9.57;;;8.57;;
357;SDS011;167;47.558;7.602;2023-03-01T07:42:11;14.20;;;12.00;;
357;SDS011;167;47.558;7.602;2023-03-01T07:44:37;13.37;;;11.27;;
357;SDS011;167;47.558;7.602;2023-03-01T07:47:03;8.67;;;7.77;;
357;SDS011;167;47.558;7.602;2023-03-01T07:49:29;11.47;;;9.80;;
357;SDS011;167;47.558;7.602;2023-03-01T07:51:55;11.83;;;8.90;;
357;SDS011;167;47.558;7.602;2023-03-01T07:54:21;9.30;;;8.37;;
357;SDS011;167;47.558;7.602;2023-03-01T07:56:47;10.10;;;9.10;;
357;SDS011;167;47.558;7.602;2023-03-01T07:59:13;11.00;;;9.50;;
357;SDS011;167;47.558;7.602;2023-03-01T08:01:39;10.73;;;9.53;;
357;SDS011;167;47.558;7.602;2023-03-01T08:04:06;11.50;;;9.90;;
357;SDS011;167;47.558;7.602;2023-03-01T08:06:33;11.70;;;10.60;;
357;SDS011;167;47.558;7.602;2023-03-01T08:08:59;14.23;;;12.93;;
357;SDS011;167;47.558;7.602;2023-03-01T08:11:25;15.60;;;10.37;;
357;SDS011;167;47.558;7.602;2023-03-01T08:13:53;11.57;;;9.20;;
357;SDS011;167;47.558;7.602;2023-03-01T08:16:19;11.35;;;10.13;;
357;SDS011;167;47.558;7.602;2023-03-01T08:18:45;11.30;;;10.10;;
357;SDS011;167;47.558;7.602;2023-03-01T08:21:12;11.70;;;10.10;;
357;SDS011;167;47.558;7.602;2023-03-01T08:23:38;11.87;;;10.67;;
357;SDS011;167;47.558;7.602;2023-03-01T08:26:08;13.90;;;9.90;;
357;SDS011;167;47.558;7.602;2023-03-01T08:28:34;13.10;;;11.50;;
357;SDS011;167;47.558;7.602;2023-03-01T08:31:01;10.63;;;9.37;;
357;SDS011;167;47.558;7.602;2023-03-01T08:33:27;12.57;;;11.23;;
357;SDS011;167;47.558;7.602;2023-03-01T08:36:01;12.00;;;10.80;;
357;SDS011;167;47.558;7.602;2023-03-01T08:38:27;11.10;;;10.07;;
357;SDS011;167;47.558;7.602;2023-03-01T08:40:53;11.40;;;10.17;;
357;SDS011;167;47.558;7.602;2023-03-01T08:43:19;14.47;;;11.10;;
357;SDS011;167;47.558;7.602;2023-03-01T08:45:45;12.27;;;11.07;;
357;SDS011;167;47.558;7.602;2023-03-01T08:48:11;11.93;;;10.83;;
357;SDS011;167;47.558;7.602;2023-03-01T08:50:37;11.20;;;10.10;;
357;SDS011;167;47.558;7.602;2023-03-01T08:53:02;11.57;;;10.00;;
357;SDS011;167;47.558;7.602;2023-03-01T08:55:28;11.10;;;9.50;;
357;SDS011;167;47.558;7.602;2023-03-01T08:57:55;10.23;;;9.30;;
357;SDS011;167;47.558;7.602;2023-03-01T09:00:22;10.80;;;9.80;;
357;SDS011;167;47.558;7.602;2023-03-01T09:02:49;10.97;;;9.97;;
357;SDS011;167;47.558;7.602;2023-03-01T09:05:15;11.60;;;10.40;;
357;SDS011;167;47.558;7.602;2023-03-01T09:07:41;10.50;;;9.50;;
357;SDS011;167;47.558;7.602;2023-03-01T09:10:07;11.93;;;10.63;;
357;SDS011;167;47.558;7.602;2023-03-01T09:12:34;12.00;;;10.77;;
357;SDS011;167;47.558;7.602;2023-03-01T09:15:00;12.43;;;11.13;;
357;SDS011;167;47.558;7.602;2023-03-01T09:17:25;12.73;;;11.53;;
357;SDS011;167;47.558;7.602;2023-03-01T09:19:51;25.80;;;11.53;;
357;SDS011;167;47.558;7.602;2023-03-01T09:22:17;12.50;;;10.73;;
357;SDS011;167;47.558;7.602;2023-03-01T09:24:43;11.90;;;10.80;;
357;SDS011;167;47.558;7.602;2023-03-01T09:27:09;11.83;;;10.63;;
357;SDS011;167;47.558;7.602;2023-03-01T09:29:37;12.23;;;11.00;;
357;SDS011;167;47.558;7.602;2023-03-01T09:32:04;10.43;;;9.43;;
357;SDS011;167;47.558;7.602;2023-03-01T09:34:31;13.10;;;11.80;;
357;SDS011;167;47.558;7.602;2023-03-01T09:37:17;10.10;;;9.23;;
357;SDS011;167;47.558;7.602;2023-03-01T09:39:43;12.13;;;10.75;;
357;SDS011;167;47.558;7.602;2023-03-01T09:42:10;12.47;;;11.27;;
357;SDS011;167;47.558;7.602;2023-03-01T09:44:42;18.13;;;14.03;;
357;SDS011;167;47.558;7.602;2023-03-01T09:47:17;12.60;;;11.30;;
357;SDS011;167;47.558;7.602;2023-03-01T09:49:44;15.57;;;13.83;;
357;SDS011;167;47.558;7.602;2023-03-01T09:54:53;11.77;;;10.57;;
357;SDS011;167;47.558;7.602;2023-03-01T10:00:09;13.30;;;10.97;;
357;SDS011;167;47.558;7.602;2023-03-01T10:10:33;11.23;;;10.20;;
357;SDS011;167;47.558;7.602;2023-03-01T10:13:00;13.67;;;12.37;;
357;SDS011;167;47.558;7.602;2023-03-01T10:15:34;11.40;;;10.40;;
357;SDS011;167;47.558;7.602;2023-03-01T10:18:02;14.70;;;11.37;;
357;SDS011;167;47.558;7.602;2023-03-01T10:23:28;16.10;;;11.40;;
357;SDS011;167;47.558;7.602;2023-03-01T10:28:31;12.07;;;10.83;;
357;SDS011;167;47.558;7.602;2023-03-01T10:31:01;12.90;;;11.60;;
357;SDS011;167;47.558;7.602;2023-03-01T10:33:29;16.63;;;11.33;;
357;SDS011;167;47.558;7.602;2023-03-01T10:35:56;12.20;;;10.93;;
357;SDS011;167;47.558;7.602;2023-03-01T10:38:22;12.40;;;11.30;;
357;SDS011;167;47.558;7.602;2023-03-01T10:40:55;13.33;;;12.03;;
357;SDS011;167;47.558;7.602;2023-03-01T10:43:22;12.83;;;11.63;;
357;SDS011;167;47.558;7.602;2023-03-01T10:45:48;13.53;;;11.80;;
357;SDS011;167;47.558;7.602;2023-03-01T10:48:19;12.37;;;11.20;;
357;SDS011;167;47.558;7.602;2023-03-01T10:50:49;13.27;;;12.07;;
357;SDS011;167;47.558;7.602;2023-03-01T10:53:20;17.27;;;13.45;;
357;SDS011;167;47.558;7.602;2023-03-01T10:55:48;13.18;;;11.65;;
357;SDS011;167;47.558;7.602;2023-03-01T10:58:21;12.90;;;11.50;;
357;SDS011;167;47.558;7.602;2023-03-01T11:03:14;15.77;;;14.27;;
357;SDS011;167;47.558;7.602;2023-03-01T11:05:56;15.30;;;12.97;;
357;SDS011;167;47.558;7.602;2023-03-01T11:08:36;15.93;;;11.87;;
357;SDS011;167;47.558;7.602;2023-03-01T11:13:31;14.57;;;13.27;;
357;SDS011;167;47.558;7.602;2023-03-01T11:16:01;15.10;;;13.40;;
357;SDS011;167;47.558;7.602;2023-03-01T11:18:28;14.97;;;13.43;;
357;SDS011;167;47.558;7.602;2023-03-01T11:20:55;14.50;;;13.00;;
357;SDS011;167;47.558;7.602;2023-03-01T11:23:21;14.03;;;12.63;;
357;SDS011;167;47.558;7.602;2023-03-01T11:25:57;14.30;;;12.47;;
357;SDS011;167;47.558;7.602;2023-03-01T11:28:24;12.90;;;11.70;;
357;SDS011;167;47.558;7.602;2023-03-01T11:33:41;16.90;;;13.53;;
357;SDS011;167;47.558;7.602;2023-03-01T11:38:49;13.70;;;12.40;;
357;SDS011;167;47.558;7.602;2023-03-01T11:41:49;15.13;;;12.85;;
357;SDS011;167;47.558;7.602;2023-03-01T11:57:20;14.80;;;12.70;;
357;SDS011;167;47.558;7.602;2023-03-01T12:02:23;17.27;;;15.67;;
357;SDS011;167;47.558;7.602;2023-03-01T12:08:06;15.20;;;13.60;;
357;SDS011;167;47.558;7.602;2023-03-01T12:24:03;14.87;;;13.23;;
357;SDS011;167;47.558;7.602;2023-03-01T12:26:37;14.50;;;13.07;;
357;SDS011;167;47.558;7.602;2023-03-01T12:31:46;15.23;;;13.73;;
357;SDS011;167;47.558;7.602;2023-03-01T12:39:30;15.40;;;13.90;;
357;SDS011;167;47.558;7.602;2023-03-01T12:47:12;14.93;;;13.40;;
357;SDS011;167;47.558;7.602;2023-03-01T12:49:41;14.30;;;12.88;;
357;SDS011;167;47.558;7.602;2023-03-01T12:52:21;14.53;;;13.13;;
357;SDS011;167;47.558;7.602;2023-03-01T12:54:49;15.00;;;13.60;;
357;SDS011;167;47.558;7.602;2023-03-01T12:59:50;15.07;;;13.50;;
357;SDS011;167;47.558;7.602;2023-03-01T13:02:24;19.00;;;12.87;;
357;SDS011;167;47.558;7.602;2023-03-01T13:07:26;14.30;;;13.00;;
357;SDS011;167;47.558;7.602;2023-03-01T13:20:18;14.40;;;13.03;;
357;SDS011;167;47.558;7.602;2023-03-01T13:22:45;15.23;;;13.73;;
357;SDS011;167;47.558;7.602;2023-03-01T13:25:13;15.90;;;14.40;;
357;SDS011;167;47.558;7.602;2023-03-01T13:27:40;15.50;;;13.90;;
357;SDS011;167;47.558;7.602;2023-03-01T13:30:12;14.77;;;13.32;;
357;SDS011;167;47.558;7.602;2023-03-01T13:32:52;15.70;;;13.90;;
357;SDS011;167;47.558;7.602;2023-03-01T13:37:45;13.70;;;12.40;;
357;SDS011;167;47.558;7.602;2023-03-01T13:42:47;13.63;;;12.33;;
357;SDS011;167;47.558;7.602;2023-03-01T13:47:46;16.53;;;14.07;;
357;SDS011;167;47.558;7.602;2023-03-01T13:50:18;15.93;;;14.30;;
357;SDS011;167;47.558;7.602;2023-03-01T13:57:42;14.93;;;13.63;;
357;SDS011;167;47.558;7.602;2023-03-01T14:00:24;15.70;;;14.00;;
357;SDS011;167;47.558;7.602;2023-03-01T14:03:00;14.30;;;12.90;;
357;SDS011;167;47.558;7.602;2023-03-01T14:05:27;17.80;;;13.17;;
357;SDS011;167;47.558;7.602;2023-03-01T14:07:53;15.00;;;13.40;;
357;SDS011;167;47.558;7.602;2023-03-01T14:10:19;17.03;;;14.17;;
357;SDS011;167;47.558;7.602;2023-03-01T14:12:50;14.93;;;13.37;;
357;SDS011;167;47.558;7.602;2023-03-01T14:17:46;15.57;;;14.07;;
357;SDS011;167;47.558;7.602;2023-03-01T14:22:47;14.33;;;12.90;;
357;SDS011;167;47.558;7.602;2023-03-01T14:25:30;16.90;;;15.20;;
357;SDS011;167;47.558;7.602;2023-03-01T14:32:52;15.47;;;13.97;;
357;SDS011;167;47.558;7.602;2023-03-01T14:35:20;14.13;;;12.80;;
357;SDS011;167;47.558;7.602;2023-03-01T14:37:46;15.53;;;13.93;;
357;SDS011;167;47.558;7.602;2023-03-01T14:40:47;15.00;;;13.40;;
357;SDS011;167;47.558;7.602;2023-03-01T14:43:10;16.10;;;13.60;;
357;SDS011;167;47.558;7.602;2023-03-01T14:45:37;14.90;;;13.30;;
357;SDS011;167;47.558;7.602;2023-03-01T14:48:04;14.50;;;11.27;;
357;SDS011;167;47.558;7.602;2023-03-01T14:50:32;16.63;;;12.80;;
357;SDS011;167;47.558;7.602;2023-03-01T14:53:02;15.07;;;13.03;;
357;SDS011;167;47.558;7.602;2023-03-01T14:55:30;15.65;;;12.52;;
357;SDS011;167;47.558;7.602;2023-03-01T14:57:57;15.00;;;13.50;;
357;SDS011;167;47.558;7.602;2023-03-01T15:00:24;20.20;;;13.03;;
357;SDS011;167;47.558;7.602;2023-03-01T15:02:52;14.77;;;13.30;;
357;SDS011;167;47.558;7.602;2023-03-01T15:05:29;15.10;;;13.63;;
357;SDS011;167;47.558;7.602;2023-03-01T15:07:56;14.00;;;12.70;;
357;SDS011;167;47.558;7.602;2023-03-01T15:10:24;13.37;;;12.10;;
357;SDS011;167;47.558;7.602;2023-03-01T15:12:50;15.27;;;13.00;;
357;SDS011;167;47.558;7.602;2023-03-01T15:15:37;20.17;;;12.77;;
357;SDS011;167;47.558;7.602;2023-03-01T15:18:05;13.47;;;12.13;;
357;SDS011;167;47.558;7.602;2023-03-01T15:20:38;13.70;;;12.20;;
357;SDS011;167;47.558;7.602;2023-03-01T15:23:04;12.63;;;11.33;;
357;SDS011;167;47.558;7.602;2023-03-01T15:25:31;15.70;;;12.53;;
357;SDS011;167;47.558;7.602;2023-03-01T15:27:58;14.93;;;13.10;;
357;SDS011;167;47.558;7.602;2023-03-01T15:30:29;17.07;;;12.27;;
357;SDS011;167;47.558;7.602;2023-03-01T15:35:44;15.13;;;13.20;;
357;SDS011;167;47.558;7.602;2023-03-01T15:40:51;13.80;;;12.00;;
357;SDS011;167;47.558;7.602;2023-03-01T15:43:40;13.50;;;12.13;;
357;SDS011;167;47.558;7.602;2023-03-01T15:46:12;13.40;;;12.10;;
357;SDS011;167;47.558;7.602;2023-03-01T15:48:44;15.07;;;13.50;;
357;SDS011;167;47.558;7.602;2023-03-01T15:51:10;14.75;;;13.25;;
357;SDS011;167;47.558;7.602;2023-03-01T15:53:38;13.97;;;12.57;;
357;SDS011;167;47.558;7.602;2023-03-01T15:56:04;15.33;;;13.73;;
357;SDS011;167;47.558;7.602;2023-03-01T15:58:32;15.13;;;13.63;;
357;SDS011;167;47.558;7.602;2023-03-01T16:00:58;13.87;;;12.47;;
357;SDS011;167;47.558;7.602;2023-03-01T16:03:24;14.10;;;12.70;;
357;SDS011;167;47.558;7.602;2023-03-01T16:05:51;13.87;;;12.57;;
357;SDS011;167;47.558;7.602;2023-03-01T16:08:17;13.67;;;12.37;;
357;SDS011;167;47.558;7.602;2023-03-01T16:10:43;13.13;;;11.83;;
357;SDS011;167;47.558;7.602;2023-03-01T16:13:10;14.23;;;12.50;;
357;SDS011;167;47.558;7.602;2023-03-01T16:15:36;12.40;;;11.10;;
357;SDS011;167;47.558;7.602;2023-03-01T16:18:03;11.90;;;10.70;;
357;SDS011;167;47.558;7.602;2023-03-01T16:20:30;13.75;;;12.35;;
357;SDS011;167;47.558;7.602;2023-03-01T16:23:03;14.27;;;12.37;;
357;SDS011;167;47.558;7.602;2023-03-01T16:25:30;11.63;;;10.52;;
357;SDS011;167;47.558;7.602;2023-03-01T16:27:57;15.70;;;12.50;;
357;SDS011;167;47.558;7.602;2023-03-01T16:30:25;12.43;;;11.10;;
357;SDS011;167;47.558;7.602;2023-03-01T16:32:51;11.80;;;10.60;;
357;SDS011;167;47.558;7.602;2023-03-01T16:35:18;13.10;;;11.90;;
357;SDS011;167;47.558;7.602;2023-03-01T16:37:44;13.00;;;11.25;;
357;SDS011;167;47.558;7.602;2023-03-01T16:40:24;15.37;;;11.83;;
357;SDS011;167;47.558;7.602;2023-03-01T16:42:51;14.47;;;11.57;;
357;SDS011;167;47.558;7.602;2023-03-01T16:45:18;12.67;;;10.33;;
357;SDS011;167;47.558;7.602;2023-03-01T16:47:44;13.33;;;12.03;;
357;SDS011;167;47.558;7.602;2023-03-01T16:50:10;15.20;;;12.77;;
357;SDS011;167;47.558;7.602;2023-03-01T16:52:36;14.93;;;11.43;;
357;SDS011;167;47.558;7.602;2023-03-01T16:55:03;12.57;;;11.37;;
357;SDS011;167;47.558;7.602;2023-03-01T16:57:30;13.53;;;11.90;;
357;SDS011;167;47.558;7.602;2023-03-01T16:59:56;13.18;;;10.73;;
357;SDS011;167;47.558;7.602;2023-03-01T17:02:22;13.30;;;10.80;;
357;SDS011;167;47.558;7.602;2023-03-01T17:04:52;12.07;;;9.97;;
357;SDS011;167;47.558;7.602;2023-03-01T17:07:18;13.47;;;12.17;;
357;SDS011;167;47.558;7.602;2023-03-01T17:09:44;12.47;;;11.17;;
357;SDS011;167;47.558;7.602;2023-03-01T17:12:13;14.43;;;12.93;;
357;SDS011;167;47.558;7.602;2023-03-01T17:14:39;17.37;;;14.00;;
357;SDS011;167;47.558;7.602;2023-03-01T17:17:09;12.70;;;11.33;;
357;SDS011;167;47.558;7.602;2023-03-01T17:19:35;14.73;;;11.63;;
357;SDS011;167;47.558;7.602;2023-03-01T17:22:05;14.73;;;13.10;;
357;SDS011;167;47.558;7.602;2023-03-01T17:24:32;15.30;;;13.13;;
357;SDS011;167;47.558;7.602;2023-03-01T17:26:58;15.30;;;13.67;;
357;SDS011;167;47.558;7.602;2023-03-01T17:29:24;13.03;;;11.30;;
357;SDS011;167;47.558;7.602;2023-03-01T17:31:50;14.40;;;13.00;;